Time;durP1;ratioP1;P1;durP2;ratioP2;P2;SDS_P1;SDS_P2;PMS_P1;PMS_P2;Temp;Humidity;BMP_temperature;BMP_pressure;BME280_temperature;BME280_humidity;BME280_pressure;Samples;Min_cycle;Max_cycle;Signal;HPM_P1;HPM_P2
2021/09/05 00:00:26;;;;;;;27.33;14.38;;;14.50;84.00;;;;;;5052527;28;20029;-50
2021/09/05 00:02:52;;;;;;;22.05;13.30;;;14.40;84.00;;;;;;5054027;28;20091;-46
2021/09/05 00:05:18;;;;;;;28.75;14.05;;;14.40;84.40;;;;;;5053675;28;20021;-46
2021/09/05 00:07:43;;;;;;;21.98;13.40;;;14.40;84.30;;;;;;5053677;28;20028;-46
2021/09/05 00:10:10;;;;;;;25.52;14.40;;;14.30;84.20;;;;;;5053638;28;20082;-47
2021/09/05 00:12:36;;;;;;;22.02;12.18;;;14.30;84.40;;;;;;5053545;28;20033;-46
2021/09/05 00:15:04;;;;;;;21.73;12.75;;;14.40;84.30;;;;;;5054189;28;20033;-48
2021/09/05 00:17:29;;;;;;;19.98;12.60;;;14.50;83.90;;;;;;5053522;28;20079;-47
2021/09/05 00:19:55;;;;;;;20.13;12.60;;;14.40;83.90;;;;;;5053291;28;20408;-47
2021/09/05 00:22:20;;;;;;;25.75;13.05;;;14.40;83.70;;;;;;5053400;28;20021;-46
2021/09/05 00:24:46;;;;;;;19.42;12.65;;;14.40;83.90;;;;;;5053357;28;20024;-46
2021/09/05 00:27:12;;;;;;;27.75;13.43;;;14.30;84.10;;;;;;5053364;28;20024;-50
2021/09/05 00:29:37;;;;;;;22.33;13.50;;;14.40;84.20;;;;;;5053295;28;20053;-46
2021/09/05 00:32:03;;;;;;;19.48;12.73;;;14.40;84.00;;;;;;5053191;28;20055;-46
2021/09/05 00:34:29;;;;;;;22.00;12.35;;;14.40;83.90;;;;;;5053486;28;20037;-47
2021/09/05 00:36:55;;;;;;;26.10;14.23;;;14.40;83.80;;;;;;5053048;28;20032;-46
2021/09/05 00:39:20;;;;;;;26.65;14.77;;;14.30;84.00;;;;;;5051717;28;20041;-46
2021/09/05 00:41:47;;;;;;;21.60;13.50;;;14.30;84.30;;;;;;5053274;28;20455;-46
2021/09/05 00:44:13;;;;;;;19.73;13.68;;;14.30;84.20;;;;;;5053335;28;20488;-49
2021/09/05 00:46:40;;;;;;;21.38;13.32;;;14.30;84.20;;;;;;5052895;28;20096;-48
2021/09/05 00:49:07;;;;;;;20.45;13.40;;;14.30;84.20;;;;;;5051988;28;20021;-47
2021/09/05 00:51:43;;;;;;;20.52;14.70;;;14.20;84.30;;;;;;5052001;28;20029;-48
2021/09/05 00:54:14;;;;;;;22.75;12.90;;;14.20;84.50;;;;;;5052228;28;20052;-47
2021/09/05 00:56:43;;;;;;;20.77;12.77;;;14.20;84.70;;;;;;5053131;28;20044;-50
2021/09/05 00:59:12;;;;;;;23.60;13.52;;;14.20;84.60;;;;;;5052842;28;20037;-48
2021/09/05 01:01:39;;;;;;;22.13;14.07;;;14.20;84.40;;;;;;5053142;28;20028;-46
2021/09/05 01:04:06;;;;;;;20.95;13.35;;;14.20;84.50;;;;;;5052621;28;20031;-47
2021/09/05 01:06:34;;;;;;;26.17;15.52;;;14.10;84.60;;;;;;5053124;28;20469;-49
2021/09/05 01:09:00;;;;;;;21.33;13.98;;;14.10;84.90;;;;;;5052778;28;20025;-47
2021/09/05 01:11:27;;;;;;;26.80;15.30;;;14.00;85.00;;;;;;5052718;28;20477;-51
2021/09/05 01:13:52;;;;;;;29.63;14.82;;;14.00;85.10;;;;;;5053137;28;20078;-46
2021/09/05 01:16:30;;;;;;;26.08;15.10;;;14.00;84.90;;;;;;5051591;28;20029;-48
2021/09/05 01:19:03;;;;;;;30.95;15.55;;;13.80;85.30;;;;;;5052784;28;20021;-48
2021/09/05 01:21:29;;;;;;;26.65;14.13;;;13.80;85.60;;;;;;5051285;28;20021;-47
2021/09/05 01:23:54;;;;;;;27.90;17.20;;;13.80;85.70;;;;;;5052844;28;20070;-49
2021/09/05 01:26:21;;;;;;;22.95;14.63;;;13.70;86.20;;;;;;5053226;28;20025;-47
2021/09/05 01:28:47;;;;;;;26.27;15.10;;;13.80;85.80;;;;;;5052659;28;20357;-49
2021/09/05 01:31:13;;;;;;;27.60;16.25;;;13.70;85.90;;;;;;5052430;28;20018;-52
2021/09/05 01:33:39;;;;;;;26.88;15.35;;;13.70;86.10;;;;;;5052438;28;20499;-47
2021/09/05 01:36:05;;;;;;;26.25;14.90;;;13.70;86.20;;;;;;5018289;28;20036;-50
2021/09/05 01:38:32;;;;;;;26.63;15.18;;;13.70;86.30;;;;;;5052569;28;20377;-49
2021/09/05 01:40:58;;;;;;;21.98;14.05;;;13.60;86.30;;;;;;5052737;28;20407;-48
2021/09/05 01:43:25;;;;;;;23.15;15.68;;;13.60;86.50;;;;;;5052699;28;20025;-48
2021/09/05 01:45:51;;;;;;;26.13;14.95;;;13.60;86.70;;;;;;5052389;28;20021;-49
2021/09/05 01:48:17;;;;;;;22.80;15.38;;;13.60;86.40;;;;;;5052699;28;20043;-48
2021/09/05 01:50:42;;;;;;;25.30;15.77;;;13.50;86.80;;;;;;5052659;28;20083;-48
2021/09/05 01:53:08;;;;;;;24.90;14.60;;;13.40;87.00;;;;;;5051150;28;20025;-48
2021/09/05 01:55:34;;;;;;;25.08;14.60;;;13.30;87.30;;;;;;5051001;28;20029;-51
2021/09/05 01:57:59;;;;;;;27.80;16.33;;;13.40;87.00;;;;;;5053482;28;20045;-47
2021/09/05 02:00:25;;;;;;;28.25;15.35;;;13.40;87.10;;;;;;5056012;28;20389;-48
2021/09/05 02:02:51;;;;;;;34.60;17.90;;;13.40;87.20;;;;;;5056043;28;20389;-48
2021/09/05 02:05:17;;;;;;;27.73;16.85;;;13.40;86.90;;;;;;5056211;28;20376;-46
2021/09/05 02:07:43;;;;;;;30.35;16.35;;;13.30;87.50;;;;;;5055983;28;20035;-49
2021/09/05 02:10:09;;;;;;;25.27;15.55;;;13.20;87.80;;;;;;5055840;28;20025;-50
2021/09/05 02:12:35;;;;;;;29.30;15.18;;;13.30;87.80;;;;;;5056478;28;20029;-47
2021/09/05 02:15:00;;;;;;;27.70;16.17;;;13.20;87.60;;;;;;5056212;28;20096;-50
2021/09/05 02:17:26;;;;;;;25.80;16.13;;;13.30;87.40;;;;;;5054867;28;20021;-46
2021/09/05 02:19:52;;;;;;;26.50;17.20;;;13.30;87.40;;;;;;5055742;28;20079;-48
2021/09/05 02:22:17;;;;;;;27.70;16.58;;;13.20;87.40;;;;;;5056121;28;20021;-47
2021/09/05 02:24:43;;;;;;;28.25;17.25;;;13.30;87.50;;;;;;5056031;28;20032;-46
2021/09/05 02:27:09;;;;;;;27.73;16.52;;;13.20;87.40;;;;;;5055961;28;20350;-48
2021/09/05 02:29:35;;;;;;;23.35;15.25;;;13.10;87.60;;;;;;5055653;28;20033;-47
2021/09/05 02:32:00;;;;;;;30.48;16.48;;;13.10;87.60;;;;;;5056116;28;20029;-47
2021/09/05 02:34:26;;;;;;;30.85;18.08;;;13.10;87.70;;;;;;5055551;28;20036;-46
2021/09/05 02:36:52;;;;;;;23.70;16.35;;;13.00;87.70;;;;;;5055435;28;20021;-48
2021/09/05 02:39:17;;;;;;;30.02;17.27;;;13.00;87.60;;;;;;5055540;28;20096;-49
2021/09/05 02:41:43;;;;;;;28.27;17.20;;;13.00;88.20;;;;;;5055468;28;20044;-46
2021/09/05 02:44:09;;;;;;;32.88;16.58;;;13.10;87.70;;;;;;5053954;28;20017;-46
2021/09/05 02:46:34;;;;;;;28.27;17.67;;;13.00;87.70;;;;;;5055509;28;20528;-45
2021/09/05 02:49:00;;;;;;;34.10;17.40;;;13.00;87.90;;;;;;5055162;28;20025;-45
2021/09/05 02:51:26;;;;;;;33.50;18.50;;;13.00;87.80;;;;;;5055373;28;20189;-48
2021/09/05 02:53:51;;;;;;;38.75;17.92;;;13.00;87.70;;;;;;5055016;28;20025;-46
2021/09/05 02:56:17;;;;;;;32.38;16.75;;;12.90;87.80;;;;;;5053733;28;20032;-47
2021/09/05 02:58:44;;;;;;;28.58;17.65;;;12.90;88.10;;;;;;5054757;28;20147;-46
2021/09/05 03:01:10;;;;;;;28.88;17.42;;;12.90;88.10;;;;;;5055018;28;20021;-49
2021/09/05 03:03:35;;;;;;;30.10;17.10;;;12.90;87.90;;;;;;5036930;28;20021;-49
2021/09/05 03:06:01;;;;;;;28.30;16.55;;;12.80;88.10;;;;;;5054851;28;20534;-46
2021/09/05 03:08:26;;;;;;;31.33;16.70;;;12.80;88.20;;;;;;5054292;28;20029;-46
2021/09/05 03:10:52;;;;;;;32.08;16.90;;;12.80;88.20;;;;;;5054708;28;20032;-46
2021/09/05 03:13:18;;;;;;;31.27;17.75;;;12.80;88.40;;;;;;5054685;28;20033;-49
2021/09/05 03:15:43;;;;;;;32.03;19.15;;;12.80;88.50;;;;;;5054615;28;20025;-48
2021/09/05 03:18:09;;;;;;;35.00;17.73;;;12.70;88.40;;;;;;5053388;28;20025;-45
2021/09/05 03:20:35;;;;;;;35.70;18.13;;;12.80;88.40;;;;;;5053076;28;20051;-45
2021/09/05 03:23:00;;;;;;;28.92;17.63;;;12.70;88.30;;;;;;5054644;28;20021;-47
2021/09/05 03:25:26;;;;;;;33.25;17.23;;;12.70;88.40;;;;;;5054939;28;20499;-46
2021/09/05 03:27:52;;;;;;;29.65;17.42;;;12.70;88.40;;;;;;5054459;28;20025;-45
2021/09/05 03:30:17;;;;;;;31.13;16.73;;;12.60;88.60;;;;;;5054738;28;20032;-46
2021/09/05 03:32:43;;;;;;;26.52;16.60;;;12.50;89.00;;;;;;5054313;28;20140;-45
2021/09/05 03:35:09;;;;;;;30.17;19.23;;;12.50;89.10;;;;;;5055083;28;20459;-45
2021/09/05 03:37:35;;;;;;;28.77;16.48;;;12.60;88.70;;;;;;5054222;28;20029;-45
2021/09/05 03:40:01;;;;;;;29.77;17.50;;;12.50;88.80;;;;;;5053218;28;20433;-46
2021/09/05 03:42:26;;;;;;;38.08;20.48;;;12.60;88.80;;;;;;5053159;28;20052;-45
2021/09/05 03:44:52;;;;;;;32.20;18.73;;;12.60;88.50;;;;;;5052888;28;20473;-47
2021/09/05 03:47:18;;;;;;;29.65;17.75;;;12.60;88.40;;;;;;5054031;28;20021;-46
2021/09/05 03:49:43;;;;;;;35.72;17.92;;;12.50;88.70;;;;;;5053968;28;20032;-45
2021/09/05 03:52:09;;;;;;;30.50;17.38;;;12.40;88.90;;;;;;5054251;28;20048;-47
2021/09/05 03:54:35;;;;;;;32.75;18.05;;;12.40;89.10;;;;;;5053966;28;20052;-45
2021/09/05 03:57:00;;;;;;;33.30;18.63;;;12.40;88.90;;;;;;5053959;28;20029;-45
2021/09/05 03:59:26;;;;;;;30.10;17.92;;;12.30;89.10;;;;;;5054237;28;20052;-49
2021/09/05 04:01:52;;;;;;;33.85;18.45;;;12.30;89.50;;;;;;5054054;28;20043;-47
2021/09/05 04:04:17;;;;;;;32.53;17.75;;;12.30;89.60;;;;;;5054031;28;20013;-49
2021/09/05 04:06:48;;;;;;;34.60;19.77;;;12.30;89.20;;;;;;5054117;28;20029;-47
2021/09/05 04:10:08;;;;;;;35.10;19.23;;;12.30;89.30;;;;;;5054132;28;20098;-48
2021/09/05 04:12:03;;;;;;;29.83;17.95;;;12.30;89.10;;;;;;5053552;28;20028;-46
2021/09/05 04:14:28;;;;;;;33.53;19.48;;;12.30;89.20;;;;;;5053845;28;20039;-50
2021/09/05 04:16:54;;;;;;;30.10;18.27;;;12.30;89.30;;;;;;5053575;28;20033;-46
2021/09/05 04:19:19;;;;;;;38.20;18.38;;;12.30;89.30;;;;;;5053349;28;20029;-45
2021/09/05 04:21:45;;;;;;;38.22;19.48;;;12.30;89.40;;;;;;5052716;28;20056;-46
2021/09/05 04:24:10;;;;;;;37.10;21.65;;;12.30;89.50;;;;;;5052408;28;20017;-45
2021/09/05 04:26:36;;;;;;;36.28;19.63;;;12.10;89.40;;;;;;5053313;28;20048;-47
2021/09/05 04:29:02;;;;;;;45.90;18.88;;;12.30;89.60;;;;;;5053346;28;20057;-48
2021/09/05 04:31:27;;;;;;;36.35;18.20;;;12.20;89.40;;;;;;5053498;28;20354;-46
2021/09/05 04:33:53;;;;;;;32.60;19.30;;;12.20;89.50;;;;;;5053506;28;20025;-47
2021/09/05 04:36:18;;;;;;;29.88;18.98;;;12.10;89.90;;;;;;5052406;28;20032;-47
2021/09/05 04:38:44;;;;;;;38.15;19.88;;;12.10;89.70;;;;;;5053636;28;20021;-45
2021/09/05 04:41:10;;;;;;;30.05;19.05;;;12.10;89.60;;;;;;5053396;28;20082;-48
2021/09/05 04:43:35;;;;;;;34.10;18.20;;;12.10;89.50;;;;;;5051899;28;20431;-45
2021/09/05 04:46:01;;;;;;;33.72;18.85;;;12.00;89.80;;;;;;5053359;28;20051;-45
2021/09/05 04:48:26;;;;;;;34.38;18.40;;;11.90;90.00;;;;;;5053338;28;20033;-46
2021/09/05 04:50:52;;;;;;;35.67;17.92;;;12.00;89.70;;;;;;5053063;28;20026;-45
2021/09/05 04:53:18;;;;;;;31.17;18.65;;;12.00;89.70;;;;;;5051875;28;20037;-47
2021/09/05 04:55:43;;;;;;;31.83;18.52;;;11.90;89.90;;;;;;5053275;28;20104;-46
2021/09/05 04:58:09;;;;;;;30.60;17.58;;;11.90;90.00;;;;;;5052841;28;20497;-46
2021/09/05 05:00:34;;;;;;;35.63;18.35;;;11.90;90.00;;;;;;5053090;28;20071;-45
2021/09/05 05:03:00;;;;;;;36.75;17.33;;;11.80;90.10;;;;;;5053282;28;20381;-45
2021/09/05 05:05:25;;;;;;;31.25;17.65;;;11.90;90.00;;;;;;5052913;28;20053;-46
2021/09/05 05:07:54;;;;;;;31.05;17.15;;;11.80;90.00;;;;;;5052977;28;20033;-49
2021/09/05 05:10:20;;;;;;;34.33;17.17;;;11.80;90.20;;;;;;5052825;28;20076;-45
2021/09/05 05:12:46;;;;;;;36.47;18.15;;;11.90;90.20;;;;;;5052761;28;20025;-45
2021/09/05 05:15:11;;;;;;;32.50;17.45;;;11.90;89.90;;;;;;5052861;28;20370;-45
2021/09/05 05:17:38;;;;;;;30.67;17.48;;;11.80;90.00;;;;;;5052793;28;20036;-49
2021/09/05 05:20:04;;;;;;;32.95;18.83;;;11.80;90.20;;;;;;5052967;28;20029;-45
2021/09/05 05:22:30;;;;;;;33.63;17.48;;;11.90;90.10;;;;;;5053180;28;20029;-45
2021/09/05 05:24:55;;;;;;;32.30;18.48;;;11.90;90.10;;;;;;5052786;28;20480;-45
2021/09/05 05:27:21;;;;;;;32.38;16.33;;;11.90;90.20;;;;;;5052563;28;20025;-47
2021/09/05 05:29:46;;;;;;;30.92;17.25;;;12.10;89.80;;;;;;5052537;28;20052;-50
2021/09/05 05:32:12;;;;;;;30.60;17.88;;;12.10;89.50;;;;;;5054247;28;20025;-46
2021/09/05 05:34:38;;;;;;;26.67;17.08;;;12.10;89.50;;;;;;5056560;28;20025;-46
2021/09/05 05:37:04;;;;;;;33.75;17.23;;;12.10;89.50;;;;;;5056481;28;20029;-45
2021/09/05 05:39:30;;;;;;;24.88;16.02;;;12.20;89.10;;;;;;5055141;28;20033;-46
2021/09/05 05:41:56;;;;;;;27.38;16.17;;;12.10;89.40;;;;;;5056517;28;20048;-46
2021/09/05 05:44:21;;;;;;;28.25;16.65;;;12.30;89.20;;;;;;5055116;28;20021;-45
2021/09/05 05:46:47;;;;;;;27.63;17.90;;;12.30;89.30;;;;;;5056423;28;20017;-46
2021/09/05 05:49:13;;;;;;;27.98;17.23;;;12.50;88.20;;;;;;5056301;28;20054;-47
2021/09/05 05:51:38;;;;;;;29.02;17.52;;;12.50;88.20;;;;;;5056235;28;20465;-47
2021/09/05 05:54:04;;;;;;;31.02;17.50;;;12.60;88.00;;;;;;5056502;28;20151;-49
2021/09/05 05:56:30;;;;;;;30.05;17.73;;;12.80;87.60;;;;;;5056541;28;20230;-46
2021/09/05 05:58:55;;;;;;;28.23;15.68;;;12.80;87.30;;;;;;5056133;28;20049;-46
2021/09/05 06:01:23;;;;;;;27.25;16.52;;;12.70;87.60;;;;;;5056087;28;20025;-46
2021/09/05 06:03:48;;;;;;;31.65;17.10;;;12.60;87.80;;;;;;5054773;28;20057;-49
2021/09/05 06:06:14;;;;;;;32.65;16.58;;;12.60;88.10;;;;;;5056023;28;20063;-46
2021/09/05 06:08:40;;;;;;;31.00;16.17;;;12.80;87.90;;;;;;5056052;28;20173;-47
2021/09/05 06:11:06;;;;;;;32.13;16.70;;;12.80;87.60;;;;;;5054703;28;20036;-46
2021/09/05 06:13:31;;;;;;;28.35;16.17;;;12.80;87.40;;;;;;5054620;28;20021;-47
2021/09/05 06:15:57;;;;;;;27.85;14.25;;;12.90;87.20;;;;;;5055827;28;20083;-45
2021/09/05 06:18:23;;;;;;;29.50;17.92;;;13.00;87.10;;;;;;5056479;28;20052;-45
2021/09/05 06:20:49;;;;;;;26.40;14.82;;;13.00;87.00;;;;;;5055652;28;20527;-46
2021/09/05 06:23:14;;;;;;;25.77;13.98;;;13.10;86.80;;;;;;5055996;28;20025;-47
2021/09/05 06:25:40;;;;;;;25.45;14.70;;;13.10;86.60;;;;;;5055929;28;20025;-46
2021/09/05 06:28:06;;;;;;;20.85;14.20;;;13.30;86.20;;;;;;5055835;28;20096;-46
2021/09/05 06:30:31;;;;;;;29.40;14.13;;;13.40;85.50;;;;;;5055556;28;20385;-47
2021/09/05 06:32:57;;;;;;;22.48;13.52;;;13.50;85.10;;;;;;5055417;28;20025;-46
2021/09/05 06:35:23;;;;;;;22.02;14.65;;;13.50;85.30;;;;;;5055976;28;20025;-47
2021/09/05 06:37:48;;;;;;;24.85;13.82;;;13.60;85.20;;;;;;5055512;28;20532;-45
2021/09/05 06:40:14;;;;;;;24.88;14.48;;;13.60;84.80;;;;;;5055633;28;20388;-47
2021/09/05 06:42:40;;;;;;;24.42;14.07;;;13.60;84.90;;;;;;5055289;28;20107;-47
2021/09/05 06:45:06;;;;;;;28.58;13.98;;;13.70;84.40;;;;;;5054588;28;20040;-44
2021/09/05 06:47:31;;;;;;;27.92;15.95;;;13.80;84.30;;;;;;5055158;28;20155;-47
2021/09/05 06:49:57;;;;;;;22.70;13.73;;;13.90;83.70;;;;;;5055097;28;20428;-49
2021/09/05 06:52:22;;;;;;;34.53;16.48;;;13.90;83.50;;;;;;5055565;28;20025;-47
2021/09/05 06:54:48;;;;;;;25.23;13.60;;;13.90;83.40;;;;;;5055137;28;20029;-47
2021/09/05 06:57:14;;;;;;;26.45;14.65;;;13.90;83.10;;;;;;5053911;28;20513;-47
2021/09/05 06:59:39;;;;;;;21.75;12.93;;;13.90;83.30;;;;;;5054851;28;20072;-47
2021/09/05 07:02:05;;;;;;;24.23;14.27;;;14.00;82.90;;;;;;5055161;28;20424;-48
2021/09/05 07:04:32;;;;;;;23.80;12.73;;;14.10;82.80;;;;;;5055265;28;20033;-51
2021/09/05 07:06:58;;;;;;;24.33;13.95;;;14.20;82.80;;;;;;5055133;28;20104;-48
2021/09/05 07:09:23;;;;;;;23.33;13.95;;;14.40;82.00;;;;;;5055244;28;20103;-48
2021/09/05 07:11:49;;;;;;;26.73;16.55;;;14.40;81.40;;;;;;5055200;28;20055;-47
2021/09/05 07:14:15;;;;;;;24.85;13.80;;;14.60;81.10;;;;;;5055257;28;20056;-46
2021/09/05 07:16:40;;;;;;;23.98;13.65;;;14.80;80.20;;;;;;5054931;28;20052;-49
2021/09/05 07:19:06;;;;;;;27.38;14.80;;;15.10;79.50;;;;;;5054778;28;20036;-50
2021/09/05 07:21:32;;;;;;;26.27;14.18;;;15.20;79.20;;;;;;5054732;28;20048;-49
2021/09/05 07:23:57;;;;;;;19.98;13.32;;;15.30;78.40;;;;;;5054772;28;20029;-47
2021/09/05 07:26:23;;;;;;;24.65;14.93;;;15.40;78.00;;;;;;5054628;28;20017;-48
2021/09/05 07:28:49;;;;;;;26.75;14.57;;;15.60;77.60;;;;;;5054656;28;20567;-48
2021/09/05 07:31:14;;;;;;;22.13;13.52;;;15.50;77.80;;;;;;5055036;28;20358;-46
2021/09/05 07:33:40;;;;;;;31.23;15.30;;;15.50;77.80;;;;;;5054600;28;20059;-49
2021/09/05 07:36:06;;;;;;;23.05;14.50;;;15.40;78.30;;;;;;5054287;28;20025;-45
2021/09/05 07:38:32;;;;;;;24.67;15.82;;;15.40;78.20;;;;;;5054154;28;20481;-48
2021/09/05 07:40:58;;;;;;;24.77;14.10;;;15.60;78.50;;;;;;5054193;28;20028;-46
2021/09/05 07:43:23;;;;;;;23.65;13.88;;;15.60;77.80;;;;;;5054041;28;20025;-48
2021/09/05 07:45:49;;;;;;;32.05;14.95;;;15.60;78.30;;;;;;5054384;28;20021;-49
2021/09/05 07:48:15;;;;;;;22.17;14.57;;;15.70;77.90;;;;;;5052627;28;20025;-45
2021/09/05 07:50:41;;;;;;;23.02;12.93;;;15.90;77.00;;;;;;5053885;28;20108;-45
2021/09/05 07:53:07;;;;;;;22.25;13.25;;;16.00;76.80;;;;;;5054101;28;20036;-45
2021/09/05 07:55:32;;;;;;;23.25;13.35;;;16.30;76.50;;;;;;5053965;28;20362;-47
2021/09/05 07:57:58;;;;;;;22.52;13.98;;;16.60;75.50;;;;;;5053762;28;20052;-46
2021/09/05 08:00:24;;;;;;;25.38;15.27;;;16.50;75.50;;;;;;5053665;28;20025;-46
2021/09/05 08:02:49;;;;;;;22.02;12.45;;;16.50;75.30;;;;;;5053924;28;20476;-46
2021/09/05 08:05:15;;;;;;;20.58;12.27;;;16.70;75.50;;;;;;5053897;28;20303;-49
2021/09/05 08:07:40;;;;;;;19.63;12.82;;;16.70;75.00;;;;;;5053710;28;20095;-47
2021/09/05 08:10:07;;;;;;;18.13;12.48;;;16.50;75.90;;;;;;5054024;28;20024;-47
2021/09/05 08:12:32;;;;;;;22.80;13.50;;;16.70;75.50;;;;;;5052186;28;20024;-48
2021/09/05 08:14:58;;;;;;;26.70;12.15;;;16.90;74.90;;;;;;5053557;28;20075;-51
2021/09/05 08:17:24;;;;;;;25.20;12.73;;;16.90;74.50;;;;;;5052569;28;20099;-46
2021/09/05 08:19:50;;;;;;;19.13;11.63;;;17.30;73.50;;;;;;5052282;28;20095;-45
2021/09/05 08:22:18;;;;;;;17.60;11.55;;;18.00;71.10;;;;;;5053855;28;20400;-47
2021/09/05 08:24:43;;;;;;;19.85;11.35;;;18.00;70.20;;;;;;5052075;28;20067;-47
2021/09/05 08:27:09;;;;;;;21.52;12.80;;;17.80;71.20;;;;;;5053583;28;20048;-51
2021/09/05 08:29:35;;;;;;;20.83;12.15;;;17.80;71.40;;;;;;5053373;28;20087;-48
2021/09/05 08:32:01;;;;;;;26.65;13.18;;;19.00;68.00;;;;;;5053366;28;20108;-47
2021/09/05 08:34:27;;;;;;;17.10;11.25;;;19.70;64.90;;;;;;5053456;28;20108;-49
2021/09/05 08:36:53;;;;;;;16.02;10.68;;;20.50;62.30;;;;;;5051863;28;20029;-48
2021/09/05 08:39:19;;;;;;;21.00;12.20;;;20.70;61.40;;;;;;5051928;28;20029;-48
2021/09/05 08:41:44;;;;;;;17.65;11.10;;;20.70;61.00;;;;;;5053176;28;20025;-47
2021/09/05 08:44:10;;;;;;;21.73;11.30;;;20.60;61.30;;;;;;5052905;28;20021;-48
2021/09/05 08:46:38;;;;;;;18.13;10.90;;;20.50;61.40;;;;;;5051935;28;20021;-48
2021/09/05 08:49:04;;;;;;;18.55;11.77;;;19.60;63.90;;;;;;5053183;28;20325;-47
2021/09/05 08:51:31;;;;;;;21.88;12.60;;;19.60;64.00;;;;;;5052947;28;20098;-46
2021/09/05 08:53:58;;;;;;;23.65;12.60;;;19.80;63.80;;;;;;5052890;28;20043;-47
2021/09/05 08:56:24;;;;;;;14.70;10.95;;;20.30;62.80;;;;;;5052722;28;20087;-49
2021/09/05 08:58:49;;;;;;;20.08;11.80;;;21.10;60.00;;;;;;5052833;28;20083;-46
2021/09/05 09:01:18;;;;;;;14.68;10.73;;;20.50;60.90;;;;;;5052832;28;20025;-47
2021/09/05 09:03:43;;;;;;;18.35;10.95;;;20.30;62.30;;;;;;5052711;28;20047;-47
2021/09/05 09:06:16;;;;;;;19.73;11.15;;;20.30;63.00;;;;;;5052313;28;20100;-47
2021/09/05 09:08:41;;;;;;;18.05;11.90;;;20.70;61.30;;;;;;5052801;28;20432;-47
2021/09/05 09:11:12;;;;;;;20.67;11.50;;;21.20;59.50;;;;;;5051423;28;20048;-49
2021/09/05 09:13:39;;;;;;;18.17;11.75;;;21.50;58.50;;;;;;5052554;28;20059;-48
2021/09/05 09:16:10;;;;;;;19.83;12.07;;;22.30;56.20;;;;;;5052023;28;20041;-46
2021/09/05 09:18:37;;;;;;;20.13;12.90;;;22.50;55.70;;;;;;5051536;28;20033;-50
2021/09/05 09:21:05;;;;;;;18.23;11.70;;;22.20;55.90;;;;;;5052405;28;20036;-49
2021/09/05 09:23:33;;;;;;;16.70;10.82;;;21.80;56.60;;;;;;5053350;28;20480;-49
2021/09/05 09:26:05;;;;;;;16.58;11.82;;;22.20;56.30;;;;;;5053284;28;20017;-48
2021/09/05 09:28:40;;;;;;;18.38;12.05;;;21.80;56.90;;;;;;5053316;28;20369;-48
2021/09/05 09:31:11;;;;;;;17.95;12.27;;;21.70;57.20;;;;;;5052407;28;20040;-47
2021/09/05 09:33:37;;;;;;;19.67;12.10;;;22.20;56.50;;;;;;5052687;28;20158;-50
2021/09/05 09:36:04;;;;;;;18.52;10.90;;;21.90;57.20;;;;;;5052468;28;20087;-47
2021/09/05 09:38:31;;;;;;;15.15;10.85;;;22.80;55.00;;;;;;5052908;28;20033;-46
2021/09/05 09:41:30;;;;;;;14.25;10.85;;;23.20;53.20;;;;;;5051327;28;20033;-48
2021/09/05 09:44:02;;;;;;;14.38;10.90;;;23.10;53.30;;;;;;5051520;28;20495;-48
2021/09/05 09:46:29;;;;;;;19.25;12.48;;;23.50;53.10;;;;;;5052762;28;20021;-48
2021/09/05 09:48:59;;;;;;;18.20;11.60;;;24.30;50.80;;;;;;5052944;28;20022;-47
2021/09/05 09:51:26;;;;;;;19.35;11.80;;;24.60;49.40;;;;;;5053185;28;20055;-49
2021/09/05 09:53:53;;;;;;;17.63;12.40;;;24.50;49.80;;;;;;5051140;28;20032;-47
2021/09/05 09:56:20;;;;;;;15.35;11.73;;;24.50;49.60;;;;;;5053305;28;20040;-48
2021/09/05 09:58:52;;;;;;;19.88;12.95;;;24.00;50.00;;;;;;5050914;28;20057;-49
2021/09/05 10:01:22;;;;;;;21.63;12.15;;;24.60;48.90;;;;;;5051254;28;20029;-47
2021/09/05 10:10:57;;;;;;;15.98;11.82;;;25.60;46.80;;;;;;4991850;28;20777;-47
2021/09/05 10:13:29;;;;;;;17.58;12.10;;;24.50;49.50;;;;;;4991214;28;20045;-49
2021/09/05 10:15:55;;;;;;;17.30;12.10;;;25.50;47.40;;;;;;4991094;28;20054;-48
2021/09/05 10:18:22;;;;;;;18.48;11.35;;;25.60;46.80;;;;;;4990800;28;20100;-47
2021/09/05 10:20:48;;;;;;;15.77;11.73;;;25.80;46.70;;;;;;4990720;28;20483;-47
2021/09/05 10:23:23;;;;;;;18.52;12.88;;;24.60;49.10;;;;;;4990287;28;20491;-49
2021/09/05 10:25:54;;;;;;;16.63;12.10;;;24.40;50.00;;;;;;4990705;28;20046;-48
2021/09/05 10:28:40;;;;;;;16.75;11.85;;;24.30;50.70;;;;;;4990690;28;20102;-49
2021/09/05 10:31:08;;;;;;;18.58;11.32;;;25.20;48.60;;;;;;4989662;28;20023;-50
2021/09/05 10:33:44;;;;;;;20.48;12.85;;;25.60;47.60;;;;;;4991155;28;20034;-47
2021/09/05 10:36:11;;;;;;;16.90;12.38;;;25.80;46.90;;;;;;4990700;28;20442;-49
2021/09/05 10:38:39;;;;;;;18.17;12.65;;;26.90;44.40;;;;;;4989563;28;20023;-47
2021/09/05 10:41:18;;;;;;;21.63;12.70;;;26.30;44.90;;;;;;4990523;28;20074;-46
2021/09/05 10:43:54;;;;;;;17.65;12.80;;;26.50;44.90;;;;;;4990883;28;20022;-53
2021/09/05 10:46:26;;;;;;;16.52;11.63;;;26.10;45.60;;;;;;4991021;28;20030;-52
2021/09/05 10:48:57;;;;;;;18.98;12.40;;;26.10;46.00;;;;;;4990184;28;20027;-52
2021/09/05 10:51:28;;;;;;;19.77;13.65;;;26.90;43.80;;;;;;4990501;28;20467;-50
2021/09/05 10:54:02;;;;;;;17.17;12.82;;;26.90;43.60;;;;;;4989040;28;20364;-48
2021/09/05 10:56:43;;;;;;;16.17;12.13;;;27.00;43.30;;;;;;4990220;28;20073;-46
2021/09/05 10:59:23;;;;;;;20.73;12.68;;;26.50;43.80;;;;;;4990580;28;20037;-48
2021/09/05 11:01:49;;;;;;;18.58;12.70;;;25.50;46.20;;;;;;4990580;28;20041;-51
2021/09/05 11:04:14;;;;;;;23.42;12.90;;;25.40;47.10;;;;;;4990335;28;20038;-48
2021/09/05 11:06:45;;;;;;;24.60;15.77;;;25.80;46.40;;;;;;4988776;28;20037;-50
2021/09/05 11:09:23;;;;;;;17.73;13.18;;;25.70;47.10;;;;;;4994906;28;20054;-49
2021/09/05 11:11:52;;;;;;;20.77;13.18;;;26.10;46.70;;;;;;5010262;28;20402;-48
2021/09/05 11:14:17;;;;;;;17.83;13.40;;;26.70;43.50;;;;;;5009424;28;20018;-48
2021/09/05 11:16:43;;;;;;;17.52;12.88;;;27.40;42.90;;;;;;5009174;28;20089;-50
2021/09/05 11:19:09;;;;;;;17.58;13.02;;;27.30;42.50;;;;;;5009007;28;20320;-49
2021/09/05 11:21:34;;;;;;;16.95;12.63;;;26.90;43.40;;;;;;4999849;28;20068;-48
2021/09/05 11:24:01;;;;;;;17.17;12.25;;;26.00;45.30;;;;;;4996744;28;20081;-47
2021/09/05 11:26:26;;;;;;;22.98;15.55;;;26.90;44.00;;;;;;4996705;28;20062;-48
2021/09/05 11:28:52;;;;;;;19.80;13.13;;;26.80;42.20;;;;;;4995332;28;20061;-48
2021/09/05 11:31:18;;;;;;;16.60;12.88;;;26.00;43.50;;;;;;4996487;28;20022;-48
2021/09/05 11:33:44;;;;;;;21.73;14.15;;;25.50;44.60;;;;;;4996685;28;20026;-48
2021/09/05 11:36:10;;;;;;;17.95;12.98;;;25.60;44.90;;;;;;4996722;28;20030;-49
2021/09/05 11:38:37;;;;;;;19.13;14.18;;;25.50;44.70;;;;;;4994754;28;20034;-48
2021/09/05 11:41:03;;;;;;;18.83;13.45;;;25.80;43.50;;;;;;4995806;28;20141;-47
2021/09/05 11:43:32;;;;;;;19.33;13.32;;;25.80;44.90;;;;;;4995694;28;20120;-47
2021/09/05 11:45:58;;;;;;;20.52;14.70;;;26.10;44.00;;;;;;4996416;28;20018;-49
2021/09/05 11:48:28;;;;;;;21.85;14.18;;;25.80;44.60;;;;;;4995859;28;20033;-48
2021/09/05 11:50:59;;;;;;;;;;;26.10;44.90;;;;;;4996497;28;20387;-49
2021/09/05 11:53:25;;;;;;;18.33;13.57;;;26.50;44.10;;;;;;4995631;28;19909;-47
2021/09/05 11:55:52;;;;;;;21.95;14.23;;;26.70;44.10;;;;;;4995315;28;20426;-48
2021/09/05 11:58:18;;;;;;;26.08;16.30;;;26.70;43.40;;;;;;4995678;28;20181;-50
2021/09/05 12:00:44;;;;;;;22.45;13.38;;;26.70;44.10;;;;;;4994233;28;20498;-49
2021/09/05 12:03:13;;;;;;;20.42;14.75;;;26.70;42.30;;;;;;4995581;28;20494;-49
2021/09/05 12:05:40;;;;;;;22.00;14.88;;;25.80;44.90;;;;;;4995501;28;20046;-49
2021/09/05 12:08:06;;;;;;;21.77;14.85;;;26.20;44.90;;;;;;4994078;28;20026;-50
2021/09/05 12:10:33;;;;;;;24.88;15.00;;;26.40;44.90;;;;;;4994897;28;20487;-49
2021/09/05 12:13:10;;;;;;;20.90;14.30;;;26.80;43.60;;;;;;4995194;28;20014;-48
2021/09/05 12:15:47;;;;;;;23.02;14.35;;;26.70;43.10;;;;;;4993774;28;20045;-47
2021/09/05 12:18:18;;;;;;;22.00;15.18;;;26.80;43.10;;;;;;4995565;28;20037;-50
2021/09/05 12:20:48;;;;;;;18.27;13.38;;;28.10;41.30;;;;;;4994847;28;20030;-50
2021/09/05 12:23:24;;;;;;;23.38;15.68;;;28.00;40.80;;;;;;4993555;28;20027;-48
2021/09/05 12:25:51;;;;;;;19.08;12.95;;;28.10;40.00;;;;;;4993511;28;20137;-53
2021/09/05 12:28:23;;;;;;;19.35;13.48;;;28.40;40.30;;;;;;4994407;28;20467;-49
2021/09/05 12:31:05;;;;;;;16.80;12.77;;;27.60;40.60;;;;;;4994687;28;20034;-48
2021/09/05 12:33:32;;;;;;;19.13;13.13;;;27.30;41.50;;;;;;4993509;28;20048;-48